Time;durP1;ratioP1;P1;durP2;ratioP2;P2;SDS_P1;SDS_P2;PMS_P1;PMS_P2;Temp;Humidity;BMP_temperature;BMP_pressure;BME280_temperature;BME280_humidity;BME280_pressure;Samples;Min_cycle;Max_cycle;Signal;HPM_P1;HPM_P2
2022/05/03 00:01:50;;;;;;;3.80;2.57;;;;;;;12.91;87.72;95904.81;5023541;28;20215;-83
2022/05/03 00:04:24;;;;;;;3.07;2.40;;;;;;;12.94;87.78;95901.59;5025745;28;20203;-83
2022/05/03 00:07:02;;;;;;;3.60;2.50;;;;;;;12.88;87.77;95898.84;5025390;28;20206;-82
2022/05/03 00:09:39;;;;;;;4.97;2.40;;;;;;;12.85;87.72;95903.94;5023919;28;20210;-83
2022/05/03 00:12:09;;;;;;;5.57;3.30;;;;;;;12.73;88.55;95906.81;5032181;28;20206;-82
2022/05/03 00:14:39;;;;;;;4.13;2.90;;;;;;;12.67;89.48;95899.72;5017539;28;20309;-83
2022/05/03 00:17:07;;;;;;;3.83;2.60;;;;;;;12.70;90.27;95901.88;5018840;28;20321;-82
2022/05/03 00:19:35;;;;;;;4.77;3.00;;;;;;;12.58;91.06;95897.69;5029031;28;20226;-82
2022/05/03 00:22:03;;;;;;;3.80;3.00;;;;;;;12.47;92.13;95891.34;5018924;28;20238;-82
2022/05/03 00:24:32;;;;;;;3.10;2.80;;;;;;;12.44;92.45;95902.66;5016925;28;20205;-82
2022/05/03 00:26:59;;;;;;;3.00;2.70;;;;;;;12.40;92.71;95901.56;5019592;28;20287;-82
2022/05/03 00:29:29;;;;;;;3.27;2.70;;;;;;;12.39;92.95;95897.19;5037361;28;20235;-82
2022/05/03 00:31:58;;;;;;;4.37;2.90;;;;;;;12.33;94.77;95895.50;5033598;28;20238;-83
2022/05/03 00:34:27;;;;;;;2.60;2.40;;;;;;;12.38;94.94;95903.69;5019234;28;20195;-82
2022/05/03 00:36:54;;;;;;;3.27;2.63;;;;;;;12.40;94.87;95898.84;5020970;28;20210;-82
2022/05/03 00:39:21;;;;;;;3.00;2.70;;;;;;;12.30;93.45;95896.81;5026213;28;20213;-82
2022/05/03 00:41:59;;;;;;;4.53;3.00;;;;;;;12.39;93.94;95905.31;5031380;28;20274;-82
2022/05/03 00:47:33;;;;;;;3.30;3.00;;;;;;;12.40;94.67;95898.84;5037893;28;20203;-83
2022/05/03 00:50:06;;;;;;;3.30;3.00;;;;;;;12.39;93.11;95898.03;5018330;28;20206;-82
2022/05/03 00:52:41;;;;;;;6.63;3.50;;;;;;;12.23;93.33;95890.78;5040193;28;20301;-82
2022/05/03 00:55:29;;;;;;;3.40;3.10;;;;;;;12.07;95.65;95889.78;5029358;28;20206;-82
2022/05/03 00:58:09;;;;;;;4.70;3.90;;;;;;;11.96;96.88;95885.28;5036153;28;20227;-82
2022/05/03 01:00:48;;;;;;;4.20;2.97;;;;;;;11.98;98.27;95888.56;5021645;28;20301;-82
2022/05/03 01:03:25;;;;;;;3.33;3.00;;;;;;;12.01;99.03;95896.16;5024376;28;20277;-82
2022/05/03 01:06:17;;;;;;;3.30;3.00;;;;;;;12.06;98.42;95895.44;5020764;28;20264;-82
2022/05/03 01:08:58;;;;;;;3.47;2.70;;;;;;;12.07;99.15;95887.06;5010195;28;20204;-82
2022/05/03 01:11:34;;;;;;;4.30;2.73;;;;;;;12.11;97.82;95890.91;5037097;28;20203;-82
2022/05/03 01:14:13;;;;;;;4.97;2.87;;;;;;;12.12;98.01;95886.31;5021336;28;20302;-82
2022/05/03 01:16:48;;;;;;;3.50;3.13;;;;;;;12.16;97.75;95900.16;5018279;28;20226;-82
2022/05/03 01:19:45;;;;;;;3.10;2.80;;;;;;;12.08;99.07;95899.50;5019573;28;20218;-82
2022/05/03 01:22:32;;;;;;;5.07;3.30;;;;;;;11.95;98.50;95899.88;5016925;28;20199;-82
2022/05/03 01:25:21;;;;;;;5.17;3.10;;;;;;;11.95;99.29;95899.88;5039303;28;20237;-82
2022/05/03 01:28:05;;;;;;;6.07;3.53;;;;;;;11.95;97.92;95905.28;5025204;28;20206;-82
2022/05/03 01:30:36;;;;;;;5.70;3.43;;;;;;;11.99;98.52;95898.28;5030614;28;20211;-83
2022/05/03 01:33:09;;;;;;;6.73;2.90;;;;;;;12.00;99.81;95905.34;5019756;28;20214;-82
2022/05/03 01:35:40;;;;;;;3.87;3.30;;;;;;;11.96;99.53;95898.81;5023335;28;20307;-82
2022/05/03 01:38:19;;;;;;;5.67;3.63;;;;;;;12.03;98.38;95906.75;5028062;28;20228;-82
2022/05/03 01:41:23;;;;;;;6.70;4.47;;;;;;;12.00;97.59;95908.06;5034550;28;20221;-82
2022/05/03 01:44:06;;;;;;;4.97;3.50;;;;;;;12.03;98.45;95906.75;5040715;28;20294;-82
2022/05/03 01:46:37;;;;;;;3.77;3.13;;;;;;;12.06;99.75;95908.97;5021454;28;20211;-82
2022/05/03 01:52:23;;;;;;;3.80;3.40;;;;;;;11.92;98.62;95910.38;5034435;28;20242;-82
2022/05/03 01:55:01;;;;;;;4.47;3.37;;;;;;;11.84;100.00;95908.91;5030090;28;20227;-82
2022/05/03 01:57:40;;;;;;;6.73;3.40;;;;;;;11.81;100.00;95917.53;5015335;28;20225;-82
2022/05/03 02:00:10;;;;;;;3.97;3.00;;;;;;;11.75;100.00;95910.41;5021947;28;20218;-82
2022/05/03 02:02:57;;;;;;;5.30;3.20;;;;;;;11.75;100.00;95913.09;5021496;28;20222;-82
2022/05/03 02:05:52;;;;;;;3.97;3.03;;;;;;;11.80;100.00;95915.91;5020987;28;20202;-82
2022/05/03 02:08:21;;;;;;;5.07;3.70;;;;;;;11.82;100.00;95918.38;5015732;28;20203;-82
2022/05/03 02:10:58;;;;;;;4.43;3.07;;;;;;;11.82;100.00;95915.66;5037140;28;20227;-82
2022/05/03 02:16:31;;;;;;;4.60;2.87;;;;;;;11.81;100.00;95914.84;5022705;28;20253;-82
2022/05/03 02:19:12;;;;;;;4.73;3.20;;;;;;;11.82;100.00;95916.47;5037682;28;20226;-82
2022/05/03 02:21:51;;;;;;;3.57;3.27;;;;;;;11.83;100.00;95923.50;5026533;28;20206;-82
2022/05/03 02:24:28;;;;;;;3.10;2.70;;;;;;;11.85;100.00;95917.84;5025815;28;20211;-82
2022/05/03 02:27:04;;;;;;;3.47;2.93;;;;;;;11.89;100.00;95919.00;5022307;28;20320;-82
2022/05/03 02:29:41;;;;;;;4.17;3.30;;;;;;;11.78;100.00;95920.72;5031210;28;20206;-82
2022/05/03 02:32:11;;;;;;;4.83;3.60;;;;;;;11.69;100.00;95914.06;5023735;28;20221;-82
2022/05/03 02:34:47;;;;;;;3.77;3.10;;;;;;;11.65;100.00;95915.66;5030563;28;20295;-82
2022/05/03 02:37:17;;;;;;;5.43;3.50;;;;;;;11.65;100.00;95912.94;5043721;28;20213;-82
2022/05/03 02:39:52;;;;;;;3.63;3.30;;;;;;;11.56;100.00;95917.13;5020535;28;20191;-82
2022/05/03 02:42:21;;;;;;;6.17;3.50;;;;;;;11.43;100.00;95912.03;5032684;28;20214;-82
2022/05/03 02:44:49;;;;;;;4.67;3.27;;;;;;;11.43;100.00;95912.03;5020207;28;20207;-82
2022/05/03 02:47:29;;;;;;;3.83;3.40;;;;;;;11.50;100.00;95909.97;5044148;28;20212;-82
2022/05/03 02:50:07;;;;;;;3.33;2.97;;;;;;;11.54;100.00;95914.66;5034208;28;20248;-82
2022/05/03 02:52:43;;;;;;;4.07;3.27;;;;;;;11.54;100.00;95903.03;5026444;28;20284;-82
2022/05/03 02:55:20;;;;;;;3.73;3.00;;;;;;;11.48;100.00;95904.03;5048184;28;20232;-82
2022/05/03 02:57:54;;;;;;;4.23;3.60;;;;;;;11.37;100.00;95895.75;5036286;28;20250;-82
2022/05/03 03:03:17;;;;;;;3.57;3.17;;;;;;;11.48;100.00;95904.03;5022797;28;20281;-82
2022/05/03 03:05:50;;;;;;;3.90;3.03;;;;;;;11.47;100.00;95905.09;5030478;28;20203;-82
2022/05/03 03:08:20;;;;;;;4.80;3.20;;;;;;;11.52;100.00;95905.16;5032726;28;20211;-82
2022/05/03 03:10:52;;;;;;;3.37;3.07;;;;;;;11.60;100.00;95907.44;5015113;28;20215;-82
2022/05/03 03:13:31;;;;;;;11.50;3.77;;;;;;;11.62;100.00;95908.84;5035485;28;20215;-82
2022/05/03 03:15:58;;;;;;;4.20;3.30;;;;;;;11.63;100.00;95901.56;5037092;28;20285;-82
2022/05/03 03:18:31;;;;;;;3.90;3.30;;;;;;;11.64;100.00;95924.81;5035609;28;20237;-82
2022/05/03 03:21:06;;;;;;;4.97;3.50;;;;;;;11.56;100.00;95917.13;5018596;28;20241;-82
2022/05/03 03:23:36;;;;;;;5.50;3.03;;;;;;;11.43;100.00;95915.56;5016610;28;20210;-82
2022/05/03 03:26:03;;;;;;;5.73;3.50;;;;;;;11.42;100.00;95905.00;5026517;28;20196;-82
2022/05/03 03:28:31;;;;;;;4.97;3.40;;;;;;;11.44;100.00;95908.28;5018358;28;20222;-82
2022/05/03 03:31:02;;;;;;;3.57;3.27;;;;;;;11.40;100.00;95916.03;5023851;28;20203;-82
2022/05/03 03:33:32;;;;;;;4.37;3.33;;;;;;;11.44;100.00;95916.38;5018664;28;20238;-82
2022/05/03 03:36:03;;;;;;;4.40;3.43;;;;;;;11.42;100.00;95916.63;5034196;28;20214;-82
2022/05/03 03:38:37;;;;;;;4.73;3.20;;;;;;;11.48;100.00;95920.25;5020675;28;20231;-82
2022/05/03 03:41:05;;;;;;;3.30;3.00;;;;;;;11.46;100.00;95916.97;5018640;28;20288;-82
2022/05/03 03:43:32;;;;;;;5.17;3.70;;;;;;;11.49;100.00;95919.16;5020234;28;20217;-82
2022/05/03 03:45:59;;;;;;;4.10;3.30;;;;;;;11.56;100.00;95923.34;5018364;28;20253;-82
2022/05/03 03:48:26;;;;;;;4.47;3.37;;;;;;;11.54;100.00;95925.47;5032013;28;20199;-82
2022/05/03 03:50:56;;;;;;;3.80;3.40;;;;;;;11.50;100.00;95926.19;5017631;28;20230;-82
2022/05/03 03:53:24;;;;;;;3.40;3.10;;;;;;;11.41;100.00;95920.38;5030493;28;20219;-82
2022/05/03 03:55:53;;;;;;;4.73;3.60;;;;;;;11.42;100.00;95921.22;5035009;28;20210;-82
2022/05/03 03:58:20;;;;;;;4.57;3.67;;;;;;;11.38;100.00;95921.72;5053094;28;20313;-82
2022/05/03 04:00:47;;;;;;;5.87;4.00;;;;;;;11.37;100.00;95922.78;5034088;28;20266;-82
2022/05/03 04:03:16;;;;;;;7.17;4.93;;;;;;;11.29;100.00;95911.56;5024784;28;20227;-82
2022/05/03 04:05:45;;;;;;;5.77;3.77;;;;;;;11.24;100.00;95920.38;5030907;28;20203;-82
2022/05/03 04:08:12;;;;;;;8.53;4.60;;;;;;;11.19;100.00;95922.19;5044193;28;20207;-82
2022/05/03 04:10:40;;;;;;;3.57;3.17;;;;;;;11.24;100.00;95920.38;5026217;28;20252;-82
2022/05/03 04:13:07;;;;;;;4.97;3.70;;;;;;;11.27;100.00;95928.00;5023842;28;20203;-82
2022/05/03 04:15:36;;;;;;;7.87;4.23;;;;;;;11.27;100.00;95921.78;5019140;28;20286;-82
2022/05/03 04:18:07;;;;;;;8.40;4.63;;;;;;;11.32;100.00;95929.97;5021312;28;20206;-82
2022/05/03 04:20:34;;;;;;;3.97;3.47;;;;;;;11.35;100.00;95927.59;5033913;28;20230;-82
2022/05/03 04:23:01;;;;;;;5.23;4.10;;;;;;;11.24;100.00;95927.66;5021587;28;20215;-82
2022/05/03 04:25:28;;;;;;;5.00;3.63;;;;;;;11.17;100.00;95935.13;5020312;28;20298;-81
2022/05/03 04:27:57;;;;;;;5.07;3.77;;;;;;;11.18;100.00;95932.19;5034417;28;20245;-82
2022/05/03 04:30:24;;;;;;;5.10;3.77;;;;;;;11.17;100.00;95929.72;5034455;28;20208;-82
2022/05/03 04:32:51;;;;;;;3.87;3.47;;;;;;;11.20;100.00;95923.84;5016282;28;20203;-81
2022/05/03 04:35:19;;;;;;;5.47;3.77;;;;;;;11.13;100.00;95924.00;5034632;28;20213;-81
2022/05/03 04:37:46;;;;;;;4.60;3.70;;;;;;;11.12;100.00;95932.34;5019746;28;20211;-81
2022/05/03 04:40:13;;;;;;;3.80;3.40;;;;;;;11.13;100.00;95940.22;5010447;28;20254;-81
2022/05/03 04:42:40;;;;;;;6.10;3.90;;;;;;;11.16;100.00;95934.28;5023064;28;20203;-81
2022/05/03 04:45:09;;;;;;;6.33;4.20;;;;;;;11.17;100.00;95938.63;5010596;28;20235;-81
2022/05/03 04:47:36;;;;;;;5.60;3.67;;;;;;;11.22;100.00;95937.94;5029568;28;20196;-81
2022/05/03 04:50:04;;;;;;;3.43;3.07;;;;;;;11.28;100.00;95940.47;5026606;28;20238;-81
2022/05/03 04:52:32;;;;;;;4.20;3.40;;;;;;;11.34;100.00;95950.28;5033920;28;20287;-81
2022/05/03 04:54:59;;;;;;;7.60;4.30;;;;;;;11.31;100.00;95937.25;5044105;28;20204;-81
2022/05/03 04:57:26;;;;;;;7.00;4.57;;;;;;;11.34;100.00;95942.19;5021523;28;20299;-81
2022/05/03 04:59:53;;;;;;;8.23;4.17;;;;;;;11.44;100.00;95951.53;5031144;28;20238;-81
2022/05/03 05:02:21;;;;;;;4.23;3.37;;;;;;;11.51;100.00;95944.06;5031402;28;20207;-82
2022/05/03 05:04:48;;;;;;;3.90;3.13;;;;;;;11.58;100.00;95953.66;5030277;28;20273;-82
2022/05/03 05:07:15;;;;;;;4.90;4.20;;;;;;;11.59;100.00;95943.66;5040061;28;20227;-81
2022/05/03 05:10:23;;;;;;;3.93;3.50;;;;;;;11.58;100.00;95947.41;5028785;28;20204;-81
2022/05/03 05:12:30;;;;;;;5.27;3.20;;;;;;;11.65;100.00;95957.00;5033686;28;20219;-81
2022/05/03 05:14:57;;;;;;;4.47;3.50;;;;;;;11.57;100.00;95945.81;5048072;28;20206;-81
2022/05/03 05:17:26;;;;;;;7.50;3.77;;;;;;;11.62;100.00;95952.09;5036387;28;20203;-81
2022/05/03 05:19:53;;;;;;;15.53;4.37;;;;;;;11.77;100.00;95956.13;5024809;28;20227;-81
2022/05/03 05:22:20;;;;;;;5.80;3.20;;;;;;;11.75;100.00;95954.50;5037154;28;20199;-81
2022/05/03 05:24:47;;;;;;;6.33;3.97;;;;;;;11.75;100.00;95951.78;5036143;28;20207;-81
2022/05/03 05:27:14;;;;;;;3.83;3.40;;;;;;;11.79;100.00;95956.72;5017906;28;20238;-80
2022/05/03 05:29:41;;;;;;;5.83;3.73;;;;;;;11.80;100.00;95955.66;5035733;28;20199;-81
2022/05/03 05:32:09;;;;;;;5.67;3.43;;;;;;;11.75;100.00;95954.50;5038771;28;20210;-82
2022/05/03 05:34:37;;;;;;;3.60;2.97;;;;;;;11.85;100.00;95950.31;5035171;28;20212;-81
2022/05/03 05:37:05;;;;;;;5.20;3.23;;;;;;;11.98;100.00;95961.63;5021103;28;20213;-81
2022/05/03 05:39:32;;;;;;;4.10;2.90;;;;;;;12.06;99.21;95963.09;5032091;28;20227;-81
2022/05/03 05:42:01;;;;;;;3.73;3.00;;;;;;;12.23;99.22;95963.03;5023511;28;20238;-81
2022/05/03 05:44:28;;;;;;;6.73;4.57;;;;;;;12.32;99.85;95966.97;5017925;28;20206;-80
2022/05/03 05:46:55;;;;;;;10.83;5.97;;;;;;;12.39;100.00;95971.13;5019635;28;20278;-81
2022/05/03 05:49:22;;;;;;;6.33;4.27;;;;;;;12.44;100.00;95975.78;5041080;28;20266;-81
2022/05/03 05:51:51;;;;;;;13.00;4.20;;;;;;;12.41;100.00;95970.88;5025323;28;20244;-81
2022/05/03 05:54:17;;;;;;;6.27;4.00;;;;;;;12.36;100.00;95968.91;5043578;28;20210;-81
2022/05/03 05:56:44;;;;;;;11.80;4.30;;;;;;;12.38;100.00;95969.47;5037367;28;20218;-80
2022/05/03 05:59:11;;;;;;;5.77;3.50;;;;;;;12.33;99.74;95960.50;5018059;28;20221;-81
2022/05/03 06:01:40;;;;;;;5.90;3.77;;;;;;;12.38;100.00;95969.47;5036846;28;20214;-81
2022/05/03 06:04:08;;;;;;;8.13;3.63;;;;;;;12.42;100.00;95964.38;5024185;28;20214;-81
2022/05/03 06:06:36;;;;;;;8.67;3.97;;;;;;;12.42;100.00;95959.78;5036134;28;20263;-81
2022/05/03 06:09:05;;;;;;;6.30;3.90;;;;;;;12.44;100.00;95979.31;5038436;28;20295;-80
2022/05/03 06:11:32;;;;;;;10.07;4.40;;;;;;;12.44;100.00;95973.88;5030876;28;20203;-81
2022/05/03 06:13:59;;;;;;;16.43;4.60;;;;;;;12.61;100.00;95981.13;5018387;28;20217;-81
2022/05/03 06:16:26;;;;;;;31.90;6.07;;;;;;;12.66;100.00;95982.03;5021770;28;20568;-80
2022/05/03 06:18:54;;;;;;;22.27;6.67;;;;;;;12.66;100.00;95982.03;5023334;28;20226;-80
2022/05/03 06:21:21;;;;;;;6.10;4.27;;;;;;;12.67;100.00;95982.84;5021526;28;20206;-81
2022/05/03 06:23:48;;;;;;;7.13;4.00;;;;;;;12.76;100.00;95979.44;5035924;28;20222;-81
2022/05/03 06:26:16;;;;;;;7.00;4.40;;;;;;;12.89;99.91;95986.38;5038985;28;20211;-81
2022/05/03 06:28:44;;;;;;;35.80;5.90;;;;;;;12.99;98.85;95989.19;5026381;28;20249;-81
2022/05/03 06:31:11;;;;;;;19.10;5.43;;;;;;;13.07;96.92;95988.75;5024698;28;20208;-80
2022/05/03 06:33:38;;;;;;;11.60;4.47;;;;;;;13.08;97.42;95989.56;5022966;28;20211;-81
2022/05/03 06:36:05;;;;;;;17.33;4.33;;;;;;;13.14;96.88;95983.97;5040824;28;20203;-81
2022/05/03 06:38:32;;;;;;;14.77;4.70;;;;;;;13.21;95.90;95994.59;5034811;28;20213;-81
2022/05/03 06:41:00;;;;;;;19.50;4.50;;;;;;;13.23;94.18;95998.69;5024632;28;20209;-81
2022/05/03 06:43:29;;;;;;;8.87;4.40;;;;;;;13.33;94.21;96005.31;5022965;28;20206;-80
2022/05/03 06:45:56;;;;;;;7.90;4.77;;;;;;;13.34;94.26;95999.63;5023178;28;20207;-81
2022/05/03 06:48:23;;;;;;;37.77;7.20;;;;;;;13.35;95.08;96006.69;5038464;28;20219;-81
2022/05/03 06:50:50;;;;;;;24.00;5.30;;;;;;;13.42;94.53;96011.91;5022251;28;20230;-81
2022/05/03 06:53:17;;;;;;;13.57;5.03;;;;;;;13.42;94.79;96009.19;5036078;28;20225;-81
2022/05/03 06:55:44;;;;;;;16.13;5.10;;;;;;;13.35;95.29;96001.28;5037329;28;20215;-81
2022/05/03 06:58:11;;;;;;;13.80;4.77;;;;;;;13.34;96.16;96012.38;5019426;28;20217;-80
2022/05/03 07:00:40;;;;;;;6.10;4.53;;;;;;;13.32;96.40;96007.19;5026707;28;20233;-81
2022/05/03 07:03:07;;;;;;;7.17;5.30;;;;;;;13.35;95.84;96014.84;5022328;28;20198;-83
2022/05/03 07:05:34;;;;;;;8.90;5.10;;;;;;;13.30;96.73;96013.94;5021383;28;20470;-81
2022/05/03 07:08:01;;;;;;;7.13;4.63;;;;;;;13.35;98.31;96014.00;5029715;28;20215;-81
2022/05/03 07:10:28;;;;;;;6.60;4.40;;;;;;;13.39;97.15;96018.66;5024236;28;20226;-81
2022/05/03 07:12:55;;;;;;;10.80;4.53;;;;;;;13.41;95.71;96007.56;5028390;28;20308;-81
2022/05/03 07:15:24;;;;;;;7.50;4.97;;;;;;;13.47;95.52;96014.66;5027654;28;20222;-81
2022/05/03 07:23:26;;;;;;;7.07;4.93;;;;;;;13.60;94.02;96017.78;5018925;28;20215;-81
2022/05/03 07:25:53;;;;;;;6.43;4.30;;;;;;;13.56;92.44;96022.09;5046262;28;20251;-81
2022/05/03 07:28:20;;;;;;;7.97;4.70;;;;;;;13.57;93.22;96015.59;5024352;28;20211;-81
2022/05/03 07:30:47;;;;;;;5.53;3.90;;;;;;;13.64;90.87;96021.63;5017386;28;20203;-81
2022/05/03 07:33:17;;;;;;;14.63;4.67;;;;;;;13.70;90.25;96027.06;5020802;28;20306;-81
2022/05/03 07:35:44;;;;;;;6.07;4.17;;;;;;;13.57;89.23;96020.19;5015594;28;20401;-81
2022/05/03 07:38:11;;;;;;;5.97;3.80;;;;;;;13.55;88.33;96019.63;5012365;28;20205;-81
2022/05/03 07:40:38;;;;;;;8.03;3.77;;;;;;;13.64;87.77;96024.31;5022321;28;20230;-81
2022/05/03 07:43:05;;;;;;;16.50;4.20;;;;;;;13.74;87.55;96020.06;5031962;28;20191;-80
2022/05/03 07:45:32;;;;;;;9.23;4.17;;;;;;;13.82;87.55;96016.88;5023358;28;20211;-80
2022/05/03 07:47:59;;;;;;;7.47;4.67;;;;;;;13.82;86.21;96014.16;5034729;28;20211;-81
2022/05/03 07:50:28;;;;;;;8.50;4.50;;;;;;;13.96;87.43;96028.94;5019567;28;20276;-81
2022/05/03 07:52:55;;;;;;;7.77;4.40;;;;;;;14.08;86.66;96028.75;5042650;28;20207;-81
2022/05/03 07:55:24;;;;;;;33.17;6.23;;;;;;;14.08;86.98;96021.44;5013604;28;20210;-81
2022/05/03 07:57:51;;;;;;;109.83;12.93;;;;;;;14.18;86.23;96024.22;5016530;28;20217;-81
2022/05/03 08:00:18;;;;;;;15.70;5.73;;;;;;;14.24;86.68;96025.09;5039837;28;20230;-80
2022/05/03 08:02:45;;;;;;;12.83;5.13;;;;;;;14.37;85.86;96020.00;5038082;28;20211;-81
2022/05/03 08:05:12;;;;;;;58.80;10.67;;;;;;;14.47;84.30;96027.44;5033158;28;20211;-81
2022/05/03 08:07:41;;;;;;;4.80;4.07;;;;;;;14.50;82.50;96028.81;5047142;28;20203;-81
2022/05/03 08:10:09;;;;;;;6.40;4.30;;;;;;;14.62;83.58;96037.59;5047553;28;20208;-80
2022/05/03 08:12:36;;;;;;;7.50;4.10;;;;;;;14.79;81.39;96031.97;5024771;28;20231;-81
2022/05/03 08:15:04;;;;;;;19.93;4.60;;;;;;;15.02;81.57;96035.06;5018110;28;20214;-81
2022/05/03 08:17:32;;;;;;;25.67;5.20;;;;;;;15.10;80.63;96042.72;5024669;28;20303;-81
2022/05/03 08:19:59;;;;;;;8.97;3.87;;;;;;;15.25;78.86;96035.69;5027690;28;20314;-81
2022/05/03 08:22:26;;;;;;;11.50;4.40;;;;;;;15.33;78.76;96033.25;5023981;28;20206;-81
2022/05/03 08:24:55;;;;;;;8.87;4.70;;;;;;;15.45;79.74;96041.19;5039992;28;20219;-81
2022/05/03 08:27:22;;;;;;;9.40;5.40;;;;;;;15.47;80.42;96039.84;5026464;28;20213;-81
2022/05/03 08:29:49;;;;;;;7.73;4.93;;;;;;;15.46;79.36;96032.75;5032791;28;20228;-81
2022/05/03 08:32:16;;;;;;;6.27;4.60;;;;;;;15.60;77.92;96037.72;5021911;28;20259;-81
2022/05/03 08:34:44;;;;;;;6.57;4.40;;;;;;;15.71;76.67;96029.31;5030513;28;20209;-81
2022/05/03 08:42:41;;;;;;;6.97;4.80;;;;;;;16.18;75.14;96041.84;5028246;28;20241;-81
2022/05/03 08:45:09;;;;;;;6.63;4.43;;;;;;;16.17;75.16;96040.19;5026668;28;20203;-81
2022/05/03 08:47:38;;;;;;;5.77;4.40;;;;;;;16.26;74.80;96042.09;5036670;28;20275;-81
2022/05/03 08:50:07;;;;;;;6.70;4.30;;;;;;;16.40;73.70;96038.84;5021578;28;20202;-81
2022/05/03 08:52:43;;;;;;;5.70;4.27;;;;;;;16.54;75.07;96038.00;5035185;28;20218;-81
2022/05/03 08:55:14;;;;;;;5.37;3.90;;;;;;;16.42;73.30;96045.63;5021486;28;20207;-81
2022/05/03 08:57:42;;;;;;;6.13;4.27;;;;;;;16.47;70.51;96032.00;5038222;28;20250;-81
2022/05/03 09:00:11;;;;;;;6.47;3.97;;;;;;;16.34;72.65;96021.66;5028484;28;20224;-81
2022/05/03 09:02:43;;;;;;;4.53;4.00;;;;;;;16.31;73.96;96043.22;5019457;28;20265;-83
2022/05/03 09:05:11;;;;;;;8.10;4.87;;;;;;;16.11;71.16;96030.41;5019589;28;20207;-83
2022/05/03 09:07:39;;;;;;;7.80;3.73;;;;;;;16.15;71.34;96036.97;5036351;28;20215;-83
2022/05/03 09:10:18;;;;;;;6.80;4.10;;;;;;;16.27;71.37;96035.56;5035245;28;20207;-83
2022/05/03 09:12:46;;;;;;;6.80;3.30;;;;;;;16.38;70.52;96035.56;5016581;28;20579;-83
2022/05/03 09:15:14;;;;;;;6.90;3.83;;;;;;;16.40;67.39;96039.66;5009150;28;20192;-83
2022/05/03 09:17:42;;;;;;;8.77;4.63;;;;;;;16.43;68.56;96033.66;5017238;28;20246;-83
2022/05/03 09:25:44;;;;;;;6.50;4.23;;;;;;;16.75;69.13;96033.38;5022464;28;20269;-83
2022/05/03 09:28:11;;;;;;;6.10;3.83;;;;;;;16.61;70.65;96030.38;5022760;28;20250;-83
2022/05/03 09:30:47;;;;;;;6.40;3.90;;;;;;;16.49;70.22;96029.84;5020790;28;20313;-83
2022/05/03 09:33:18;;;;;;;4.83;3.80;;;;;;;16.76;68.28;96032.25;5032806;28;20302;-85
2022/05/03 09:35:46;;;;;;;4.23;3.77;;;;;;;16.62;68.97;96023.03;5026595;28;20269;-83
2022/05/03 09:38:13;;;;;;;5.50;3.90;;;;;;;16.86;69.82;96025.94;5020067;28;20301;-83
2022/05/03 09:40:42;;;;;;;10.20;4.30;;;;;;;17.18;68.20;96026.34;5037297;28;20234;-83
2022/05/03 09:43:11;;;;;;;7.20;3.97;;;;;;;17.37;66.24;96027.38;5029349;28;20211;-82
2022/05/03 09:45:39;;;;;;;4.43;3.60;;;;;;;17.20;66.79;96018.72;5027851;28;20210;-82
2022/05/03 09:48:07;;;;;;;5.90;4.33;;;;;;;17.19;66.10;96022.53;5025236;28;20222;-82
2022/05/03 09:50:40;;;;;;;4.00;3.03;;;;;;;17.15;64.27;96020.66;5002922;28;20242;-82
2022/05/03 09:53:13;;;;;;;4.40;2.90;;;;;;;16.89;63.51;96018.03;5017590;28;20208;-82
2022/05/03 09:55:42;;;;;;;3.13;2.83;;;;;;;16.96;64.72;96017.75;5037188;28;20219;-82
2022/05/03 09:58:12;;;;;;;8.67;3.90;;;;;;;17.13;65.69;96020.94;5031064;28;20207;-82
2022/05/03 10:00:42;;;;;;;5.30;3.20;;;;;;;17.23;65.85;96015.44;5025154;28;20378;-82
2022/05/03 10:03:10;;;;;;;3.67;3.33;;;;;;;17.22;65.72;96007.53;5025392;28;20202;-81
2022/05/03 10:05:39;;;;;;;5.60;3.67;;;;;;;17.01;68.11;96004.09;5028086;28;20206;-81
2022/05/03 10:08:07;;;;;;;5.17;3.17;;;;;;;17.06;67.84;96006.78;5030839;28;20329;-83
2022/05/03 10:10:35;;;;;;;4.90;3.40;;;;;;;17.22;67.46;96004.81;5034609;28;20209;-82
2022/05/03 10:13:02;;;;;;;5.30;3.23;;;;;;;17.57;67.86;96001.88;5022279;28;20199;-82
2022/05/03 10:21:13;;;;;;;6.07;3.20;;;;;;;18.51;62.58;95999.78;5035993;28;20286;-82
2022/05/03 10:23:40;;;;;;;4.10;2.60;;;;;;;18.57;61.26;95993.19;5031898;28;20204;-82
2022/05/03 10:26:09;;;;;;;2.97;2.60;;;;;;;18.52;60.09;95991.28;5043298;28;20210;-82
2022/05/03 10:29:08;;;;;;;2.90;2.13;;;;;;;18.67;55.34;95987.59;5044584;28;20344;-82
2022/05/03 10:32:02;;;;;;;3.03;1.70;;;;;;;19.07;46.31;95980.84;5022983;28;20226;-82
2022/05/03 10:34:56;;;;;;;1.93;1.30;;;;;;;19.45;45.37;95980.91;5005326;28;20234;-81
2022/05/03 10:38:06;;;;;;;1.73;1.30;;;;;;;19.74;41.16;95969.81;5009401;28;20222;-82
2022/05/03 10:40:39;;;;;;;1.60;1.50;;;;;;;19.50;41.11;95978.91;5024506;28;20322;-83
2022/05/03 10:43:10;;;;;;;1.93;1.50;;;;;;;19.61;40.82;95977.66;5019323;28;20209;-83
2022/05/03 10:45:55;;;;;;;2.93;1.60;;;;;;;20.12;39.38;95968.66;5021776;28;20214;-83
2022/05/03 10:48:26;;;;;;;2.87;1.40;;;;;;;20.47;38.84;95969.16;5036006;28;20203;-82
2022/05/03 10:50:54;;;;;;;1.30;1.05;;;;;;;20.33;38.06;95964.41;5015685;28;20223;-83
2022/05/03 10:53:27;;;;;;;1.80;1.30;;;;;;;20.52;37.85;95960.84;5024967;28;20764;-83
2022/05/03 10:56:16;;;;;;;1.55;1.45;;;;;;;20.50;37.70;95957.59;5032809;28;20226;-84
2022/05/03 10:58:45;;;;;;;2.25;1.30;;;;;;;20.16;37.29;95950.47;5030286;28;20208;-84
2022/05/03 11:01:17;;;;;;;1.38;1.27;;;;;;;20.46;38.41;95946.41;5024404;28;20215;-82
2022/05/03 11:04:16;;;;;;;2.25;1.30;;;;;;;20.60;37.11;95946.41;5057099;28;20253;-82
2022/05/03 11:06:47;;;;;;;1.27;1.15;;;;;;;20.38;37.75;95939.69;5034472;28;20208;-82
2022/05/03 11:09:18;;;;;;;2.20;1.20;;;;;;;19.86;38.30;95948.25;5035773;28;20218;-81
2022/05/03 11:12:07;;;;;;;3.50;1.42;;;;;;;19.94;39.40;95937.44;5014912;28;20217;-82
2022/05/03 11:14:54;;;;;;;1.70;1.33;;;;;;;19.89;37.99;95936.72;5020938;28;20207;-81
2022/05/03 11:17:21;;;;;;;2.90;1.47;;;;;;;20.14;39.07;95936.28;5025003;28;20231;-81
2022/05/03 11:19:51;;;;;;;2.13;1.40;;;;;;;20.38;36.89;95934.22;5019503;28;20214;-81
2022/05/03 11:22:22;;;;;;;1.45;1.35;;;;;;;20.55;37.88;95939.13;5023136;28;20314;-81
2022/05/03 11:24:51;;;;;;;2.55;1.60;;;;;;;20.32;36.94;95935.41;5026249;28;20215;-82
2022/05/03 11:27:19;;;;;;;1.95;1.30;;;;;;;20.26;36.81;95931.09;5033876;28;20267;-84
2022/05/03 11:29:48;;;;;;;2.13;1.10;;;;;;;20.21;37.50;95933.94;5017625;28;20310;-84
2022/05/03 11:32:16;;;;;;;1.80;1.40;;;;;;;19.85;36.73;95931.00;5028366;28;20293;-83
2022/05/03 11:34:44;;;;;;;1.83;1.20;;;;;;;20.02;37.48;95922.22;5022344;28;20257;-84
2022/05/03 11:37:11;;;;;;;2.25;1.23;;;;;;;20.12;38.03;95924.78;5031768;28;20307;-83
2022/05/03 11:39:40;;;;;;;1.33;1.10;;;;;;;19.96;38.46;95912.47;5034231;28;20250;-84
2022/05/03 11:42:10;;;;;;;1.50;1.40;;;;;;;20.00;37.82;95922.53;5038301;28;20318;-84
2022/05/03 11:44:44;;;;;;;1.95;1.50;;;;;;;20.18;38.76;95912.63;5037855;28;20237;-83
2022/05/03 11:47:12;;;;;;;2.00;1.55;;;;;;;20.12;38.00;95915.75;5032915;28;20239;-82
2022/05/03 11:49:39;;;;;;;3.08;1.15;;;;;;;20.05;37.46;95907.94;5035587;28;20201;-81
2022/05/03 11:57:40;;;;;;;1.73;1.60;;;;;;;20.17;37.10;95901.94;5039412;28;20206;-83
2022/05/03 12:00:12;;;;;;;1.30;1.20;;;;;;;20.21;36.95;95886.53;5038823;28;20276;-82
2022/05/03 12:02:42;;;;;;;1.35;1.15;;;;;;;20.41;37.84;95890.88;5023219;28;20219;-82
2022/05/03 12:05:18;;;;;;;1.30;1.20;;;;;;;20.67;35.67;95889.25;5036552;28;20207;-82
2022/05/03 12:07:47;;;;;;;1.20;1.10;;;;;;;21.13;35.16;95884.41;5015624;28;20217;-82
2022/05/03 12:10:21;;;;;;;1.52;1.20;;;;;;;21.54;33.82;95878.00;5027031;28;20233;-82
2022/05/03 12:13:03;;;;;;;2.22;1.20;;;;;;;21.30;33.84;95866.50;5036098;28;20222;-83
2022/05/03 12:15:31;;;;;;;1.20;1.10;;;;;;;21.17;33.97;95872.81;5012174;28;20261;-82
2022/05/03 12:18:00;;;;;;;1.17;1.10;;;;;;;21.50;32.75;95877.00;5018349;28;20215;-82
2022/05/03 12:20:40;;;;;;;2.08;1.42;;;;;;;21.52;32.72;95874.78;5012430;28;20314;-82
2022/05/03 12:23:13;;;;;;;1.48;1.13;;;;;;;21.64;33.75;95866.75;5024531;28;20199;-82
2022/05/03 12:25:43;;;;;;;2.53;1.20;;;;;;;21.88;32.06;95866.44;5031493;28;20246;-81
2022/05/03 12:28:11;;;;;;;1.52;1.05;;;;;;;21.71;32.26;95864.38;5017126;28;20207;-82